sensor_id;sensor_type;location;lat;lon;timestamp;temperature;humidity
26212;DHT22;13951;49.516;6.094;2022-10-22T00:15:39;15.40;99.90
26212;DHT22;13951;49.516;6.094;2022-10-22T03:33:17;14.40;99.90
26212;DHT22;13951;49.516;6.094;2022-10-22T03:35:50;14.30;99.90
26212;DHT22;13951;49.516;6.094;2022-10-22T03:38:23;14.30;99.90
26212;DHT22;13951;49.516;6.094;2022-10-22T03:40:56;14.30;99.90
26212;DHT22;13951;49.516;6.094;2022-10-22T03:43:29;14.30;99.90
26212;DHT22;13951;49.516;6.094;2022-10-22T03:46:02;14.30;99.90
26212;DHT22;13951;49.516;6.094;2022-10-22T03:48:35;14.30;99.90
26212;DHT22;13951;49.516;6.094;2022-10-22T03:51:07;14.30;99.90
26212;DHT22;13951;49.516;6.094;2022-10-22T03:53:41;14.30;99.90
26212;DHT22;13951;49.516;6.094;2022-10-22T03:56:14;14.30;99.90
26212;DHT22;13951;49.516;6.094;2022-10-22T03:58:46;14.20;99.90
26212;DHT22;13951;49.516;6.094;2022-10-22T04:01:19;14.20;99.90
26212;DHT22;13951;49.516;6.094;2022-10-22T04:03:52;14.10;99.90
26212;DHT22;13951;49.516;6.094;2022-10-22T04:06:25;14.10;99.90
26212;DHT22;13951;49.516;6.094;2022-10-22T04:09:00;14.10;99.90
26212;DHT22;13951;49.516;6.094;2022-10-22T04:11:33;14.10;99.90
26212;DHT22;13951;49.516;6.094;2022-10-22T04:14:07;14.00;99.90
26212;DHT22;13951;49.516;6.094;2022-10-22T04:16:40;14.00;99.90
26212;DHT22;13951;49.516;6.094;2022-10-22T04:19:13;14.00;99.90
26212;DHT22;13951;49.516;6.094;2022-10-22T04:21:45;14.00;99.90
26212;DHT22;13951;49.516;6.094;2022-10-22T04:24:19;14.00;99.90
26212;DHT22;13951;49.516;6.094;2022-10-22T04:26:55;14.00;99.90
26212;DHT22;13951;49.516;6.094;2022-10-22T04:29:28;14.00;99.90
26212;DHT22;13951;49.516;6.094;2022-10-22T04:32:00;14.00;99.90
26212;DHT22;13951;49.516;6.094;2022-10-22T04:34:33;14.00;99.90
26212;DHT22;13951;49.516;6.094;2022-10-22T04:37:06;13.90;99.90
26212;DHT22;13951;49.516;6.094;2022-10-22T04:39:39;13.90;99.90
26212;DHT22;13951;49.516;6.094;2022-10-22T04:42:12;13.90;99.90
26212;DHT22;13951;49.516;6.094;2022-10-22T04:44:45;13.90;99.90
26212;DHT22;13951;49.516;6.094;2022-10-22T04:47:18;13.90;99.90
26212;DHT22;13951;49.516;6.094;2022-10-22T04:49:50;13.90;99.90
26212;DHT22;13951;49.516;6.094;2022-10-22T04:52:23;13.80;99.90
26212;DHT22;13951;49.516;6.094;2022-10-22T04:54:56;13.80;99.90
26212;DHT22;13951;49.516;6.094;2022-10-22T04:57:30;13.80;99.90
26212;DHT22;13951;49.516;6.094;2022-10-22T05:00:04;13.80;99.90
26212;DHT22;13951;49.516;6.094;2022-10-22T05:02:37;13.80;99.90
26212;DHT22;13951;49.516;6.094;2022-10-22T05:05:10;13.80;99.90
26212;DHT22;13951;49.516;6.094;2022-10-22T05:07:43;13.80;99.90
26212;DHT22;13951;49.516;6.094;2022-10-22T05:10:16;13.70;99.90
26212;DHT22;13951;49.516;6.094;2022-10-22T05:12:49;13.70;99.90
26212;DHT22;13951;49.516;6.094;2022-10-22T05:15:22;13.70;99.90
26212;DHT22;13951;49.516;6.094;2022-10-22T05:17:55;13.70;99.90
26212;DHT22;13951;49.516;6.094;2022-10-22T05:20:28;13.60;99.90
26212;DHT22;13951;49.516;6.094;2022-10-22T05:23:00;13.60;99.90
26212;DHT22;13951;49.516;6.094;2022-10-22T05:25:40;13.60;99.90
26212;DHT22;13951;49.516;6.094;2022-10-22T05:28:12;13.60;99.90
26212;DHT22;13951;49.516;6.094;2022-10-22T05:30:53;13.60;99.90
26212;DHT22;13951;49.516;6.094;2022-10-22T05:33:27;13.60;99.90
26212;DHT22;13951;49.516;6.094;2022-10-22T05:36:02;13.60;99.90
26212;DHT22;13951;49.516;6.094;2022-10-22T05:38:35;13.60;99.90
26212;DHT22;13951;49.516;6.094;2022-10-22T05:41:17;13.60;99.90
26212;DHT22;13951;49.516;6.094;2022-10-22T05:43:50;13.60;99.90
26212;DHT22;13951;49.516;6.094;2022-10-22T05:46:25;13.60;99.90
26212;DHT22;13951;49.516;6.094;2022-10-22T05:49:00;13.60;99.90
26212;DHT22;13951;49.516;6.094;2022-10-22T05:51:35;13.60;99.90
26212;DHT22;13951;49.516;6.094;2022-10-22T05:54:18;13.60;99.90
26212;DHT22;13951;49.516;6.094;2022-10-22T05:56:51;13.60;99.90
26212;DHT22;13951;49.516;6.094;2022-10-22T05:59:24;13.60;99.90
26212;DHT22;13951;49.516;6.094;2022-10-22T06:01:56;13.50;99.90
26212;DHT22;13951;49.516;6.094;2022-10-22T06:04:29;13.50;99.90
26212;DHT22;13951;49.516;6.094;2022-10-22T06:07:02;13.50;99.90
26212;DHT22;13951;49.516;6.094;2022-10-22T06:09:35;13.40;99.90
26212;DHT22;13951;49.516;6.094;2022-10-22T06:12:13;13.40;99.90
26212;DHT22;13951;49.516;6.094;2022-10-22T06:14:46;13.40;99.90
26212;DHT22;13951;49.516;6.094;2022-10-22T06:17:19;13.40;99.90
26212;DHT22;13951;49.516;6.094;2022-10-22T06:19:51;13.40;99.90
26212;DHT22;13951;49.516;6.094;2022-10-22T06:22:24;13.40;99.90
26212;DHT22;13951;49.516;6.094;2022-10-22T06:24:57;13.40;99.90
26212;DHT22;13951;49.516;6.094;2022-10-22T06:27:31;13.40;99.90
26212;DHT22;13951;49.516;6.094;2022-10-22T06:30:04;13.40;99.90
26212;DHT22;13951;49.516;6.094;2022-10-22T06:32:37;13.40;99.90
26212;DHT22;13951;49.516;6.094;2022-10-22T06:35:10;13.40;99.90
26212;DHT22;13951;49.516;6.094;2022-10-22T06:37:43;13.50;99.90
26212;DHT22;13951;49.516;6.094;2022-10-22T06:40:16;13.50;99.90
26212;DHT22;13951;49.516;6.094;2022-10-22T06:42:50;13.50;99.90
26212;DHT22;13951;49.516;6.094;2022-10-22T06:45:22;13.60;99.90
26212;DHT22;13951;49.516;6.094;2022-10-22T06:47:55;13.60;99.90
26212;DHT22;13951;49.516;6.094;2022-10-22T06:50:28;13.60;99.90
26212;DHT22;13951;49.516;6.094;2022-10-22T06:53:01;13.70;99.90
26212;DHT22;13951;49.516;6.094;2022-10-22T06:55:34;13.70;99.90
26212;DHT22;13951;49.516;6.094;2022-10-22T06:58:07;13.70;99.90
26212;DHT22;13951;49.516;6.094;2022-10-22T07:00:40;13.80;99.90
26212;DHT22;13951;49.516;6.094;2022-10-22T07:03:13;13.80;99.90
26212;DHT22;13951;49.516;6.094;2022-10-22T07:05:46;13.80;99.90
26212;DHT22;13951;49.516;6.094;2022-10-22T07:08:19;13.90;99.90
26212;DHT22;13951;49.516;6.094;2022-10-22T07:10:52;13.90;99.90
26212;DHT22;13951;49.516;6.094;2022-10-22T07:13:24;14.00;99.90
26212;DHT22;13951;49.516;6.094;2022-10-22T07:15:57;14.00;99.90
26212;DHT22;13951;49.516;6.094;2022-10-22T07:18:31;14.10;99.90
26212;DHT22;13951;49.516;6.094;2022-10-22T07:21:05;14.10;99.90
26212;DHT22;13951;49.516;6.094;2022-10-22T07:23:38;14.10;99.90
26212;DHT22;13951;49.516;6.094;2022-10-22T07:26:13;14.10;99.90
26212;DHT22;13951;49.516;6.094;2022-10-22T07:28:47;14.20;99.90
26212;DHT22;13951;49.516;6.094;2022-10-22T07:31:20;14.10;99.90
26212;DHT22;13951;49.516;6.094;2022-10-22T07:33:52;14.20;99.90
26212;DHT22;13951;49.516;6.094;2022-10-22T07:36:25;14.20;99.90
26212;DHT22;13951;49.516;6.094;2022-10-22T07:38:59;14.20;99.90
26212;DHT22;13951;49.516;6.094;2022-10-22T07:41:32;14.30;99.90
26212;DHT22;13951;49.516;6.094;2022-10-22T07:44:05;14.20;99.90
26212;DHT22;13951;49.516;6.094;2022-10-22T07:46:37;14.30;99.90
26212;DHT22;13951;49.516;6.094;2022-10-22T07:49:10;14.30;99.90
26212;DHT22;13951;49.516;6.094;2022-10-22T07:51:43;14.30;99.90
26212;DHT22;13951;49.516;6.094;2022-10-22T07:54:16;14.30;99.90
26212;DHT22;13951;49.516;6.094;2022-10-22T07:56:51;14.40;99.90
26212;DHT22;13951;49.516;6.094;2022-10-22T07:59:24;14.40;99.90
26212;DHT22;13951;49.516;6.094;2022-10-22T08:01:57;14.40;99.90
26212;DHT22;13951;49.516;6.094;2022-10-22T08:04:30;14.40;99.90
26212;DHT22;13951;49.516;6.094;2022-10-22T08:07:03;14.50;99.90
26212;DHT22;13951;49.516;6.094;2022-10-22T08:09:36;14.50;99.90
26212;DHT22;13951;49.516;6.094;2022-10-22T08:12:09;14.50;99.90
26212;DHT22;13951;49.516;6.094;2022-10-22T08:14:42;14.60;99.90
26212;DHT22;13951;49.516;6.094;2022-10-22T08:17:15;14.70;99.90
26212;DHT22;13951;49.516;6.094;2022-10-22T08:19:48;14.70;99.90
26212;DHT22;13951;49.516;6.094;2022-10-22T08:22:20;14.70;99.90
26212;DHT22;13951;49.516;6.094;2022-10-22T08:24:53;14.80;99.90
26212;DHT22;13951;49.516;6.094;2022-10-22T08:27:26;15.00;99.90
26212;DHT22;13951;49.516;6.094;2022-10-22T08:29:59;15.00;99.90
26212;DHT22;13951;49.516;6.094;2022-10-22T08:32:32;15.10;99.90
26212;DHT22;13951;49.516;6.094;2022-10-22T08:35:05;15.10;99.90
26212;DHT22;13951;49.516;6.094;2022-10-22T08:37:38;15.10;99.90
26212;DHT22;13951;49.516;6.094;2022-10-22T08:40:20;15.20;99.90
26212;DHT22;13951;49.516;6.094;2022-10-22T08:48:49;15.30;99.90
26212;DHT22;13951;49.516;6.094;2022-10-22T08:51:30;15.40;99.90
26212;DHT22;13951;49.516;6.094;2022-10-22T08:54:36;15.40;99.90
26212;DHT22;13951;49.516;6.094;2022-10-22T09:06:56;15.70;99.90
26212;DHT22;13951;49.516;6.094;2022-10-22T09:09:15;15.70;99.90
26212;DHT22;13951;49.516;6.094;2022-10-22T09:11:51;15.90;99.90
26212;DHT22;13951;49.516;6.094;2022-10-22T09:14:25;15.90;99.90
26212;DHT22;13951;49.516;6.094;2022-10-22T09:17:28;16.00;99.90
26212;DHT22;13951;49.516;6.094;2022-10-22T09:22:57;16.10;99.90
26212;DHT22;13951;49.516;6.094;2022-10-22T09:25:35;16.00;99.90
26212;DHT22;13951;49.516;6.094;2022-10-22T09:28:08;16.10;99.90
26212;DHT22;13951;49.516;6.094;2022-10-22T09:30:41;16.10;99.90
26212;DHT22;13951;49.516;6.094;2022-10-22T09:33:26;16.20;99.90
26212;DHT22;13951;49.516;6.094;2022-10-22T09:36:04;16.20;99.90
26212;DHT22;13951;49.516;6.094;2022-10-22T09:38:44;16.30;99.90
26212;DHT22;13951;49.516;6.094;2022-10-22T09:41:24;16.30;99.90
26212;DHT22;13951;49.516;6.094;2022-10-22T09:43:58;16.30;99.90
26212;DHT22;13951;49.516;6.094;2022-10-22T09:46:37;16.30;99.90
26212;DHT22;13951;49.516;6.094;2022-10-22T09:49:17;16.40;99.90
26212;DHT22;13951;49.516;6.094;2022-10-22T09:51:56;16.40;99.90
26212;DHT22;13951;49.516;6.094;2022-10-22T09:59:49;16.60;99.90
26212;DHT22;13951;49.516;6.094;2022-10-22T10:02:27;16.70;99.90
26212;DHT22;13951;49.516;6.094;2022-10-22T10:05:23;16.80;99.90
26212;DHT22;13951;49.516;6.094;2022-10-22T10:07:57;16.80;99.90
26212;DHT22;13951;49.516;6.094;2022-10-22T10:10:49;16.90;99.90
26212;DHT22;13951;49.516;6.094;2022-10-22T10:13:32;16.90;99.90
26212;DHT22;13951;49.516;6.094;2022-10-22T10:16:25;17.00;99.90
26212;DHT22;13951;49.516;6.094;2022-10-22T10:22:04;17.00;99.90
26212;DHT22;13951;49.516;6.094;2022-10-22T10:25:02;17.10;99.90
26212;DHT22;13951;49.516;6.094;2022-10-22T10:28:06;17.10;99.90
26212;DHT22;13951;49.516;6.094;2022-10-22T10:30:59;17.20;99.90
26212;DHT22;13951;49.516;6.094;2022-10-22T10:33:43;17.30;99.90
26212;DHT22;13951;49.516;6.094;2022-10-22T10:36:29;17.50;99.90
26212;DHT22;13951;49.516;6.094;2022-10-22T10:39:13;17.60;99.90
26212;DHT22;13951;49.516;6.094;2022-10-22T10:42:02;17.90;99.90
26212;DHT22;13951;49.516;6.094;2022-10-22T10:45:01;18.00;99.90
26212;DHT22;13951;49.516;6.094;2022-10-22T10:48:03;18.20;99.90
26212;DHT22;13951;49.516;6.094;2022-10-22T11:08:27;19.80;99.90
26212;DHT22;13951;49.516;6.094;2022-10-22T11:11:07;20.00;99.90
26212;DHT22;13951;49.516;6.094;2022-10-22T11:14:18;20.20;99.90
26212;DHT22;13951;49.516;6.094;2022-10-22T11:17:00;20.40;99.90
26212;DHT22;13951;49.516;6.094;2022-10-22T11:19:55;20.50;99.90
26212;DHT22;13951;49.516;6.094;2022-10-22T11:22:39;20.60;99.90
26212;DHT22;13951;49.516;6.094;2022-10-22T11:25:30;20.80;99.90
26212;DHT22;13951;49.516;6.094;2022-10-22T11:31:22;21.10;99.90
26212;DHT22;13951;49.516;6.094;2022-10-22T11:36:59;21.50;99.90
26212;DHT22;13951;49.516;6.094;2022-10-22T11:39:51;21.70;99.90
26212;DHT22;13951;49.516;6.094;2022-10-22T11:42:37;21.80;99.90
26212;DHT22;13951;49.516;6.094;2022-10-22T11:50:49;22.20;99.90
26212;DHT22;13951;49.516;6.094;2022-10-22T11:58:41;21.10;99.90
26212;DHT22;13951;49.516;6.094;2022-10-22T12:01:24;20.70;99.90
26212;DHT22;13951;49.516;6.094;2022-10-22T12:06:52;20.00;99.90
26212;DHT22;13951;49.516;6.094;2022-10-22T12:09:27;19.80;99.90
26212;DHT22;13951;49.516;6.094;2022-10-22T12:12:10;19.60;99.90
26212;DHT22;13951;49.516;6.094;2022-10-22T12:14:52;19.40;99.90
26212;DHT22;13951;49.516;6.094;2022-10-22T12:17:27;19.30;99.90
26212;DHT22;13951;49.516;6.094;2022-10-22T12:20:12;19.20;99.90
26212;DHT22;13951;49.516;6.094;2022-10-22T12:22:45;19.10;99.90
26212;DHT22;13951;49.516;6.094;2022-10-22T12:25:21;19.00;99.90
26212;DHT22;13951;49.516;6.094;2022-10-22T12:27:57;18.90;99.90
26212;DHT22;13951;49.516;6.094;2022-10-22T12:30:32;18.90;99.90
26212;DHT22;13951;49.516;6.094;2022-10-22T12:33:18;18.90;99.90
26212;DHT22;13951;49.516;6.094;2022-10-22T12:35:54;18.90;99.90
26212;DHT22;13951;49.516;6.094;2022-10-22T12:38:29;19.00;99.90
26212;DHT22;13951;49.516;6.094;2022-10-22T12:41:01;19.10;99.90
26212;DHT22;13951;49.516;6.094;2022-10-22T12:50:58;19.90;99.90
26212;DHT22;13951;49.516;6.094;2022-10-22T12:54:06;20.60;99.90
26212;DHT22;13951;49.516;6.094;2022-10-22T12:56:55;20.60;99.90
26212;DHT22;13951;49.516;6.094;2022-10-22T13:00:28;20.50;99.90
26212;DHT22;13951;49.516;6.094;2022-10-22T13:07:16;20.50;99.90
26212;DHT22;13951;49.516;6.094;2022-10-22T13:10:34;20.40;99.90
26212;DHT22;13951;49.516;6.094;2022-10-22T13:16:29;20.20;99.90
26212;DHT22;13951;49.516;6.094;2022-10-22T13:19:41;20.10;99.90
26212;DHT22;13951;49.516;6.094;2022-10-22T13:22:57;20.00;99.90
26212;DHT22;13951;49.516;6.094;2022-10-22T13:26:17;20.00;99.90
26212;DHT22;13951;49.516;6.094;2022-10-22T13:29:10;19.90;99.90
26212;DHT22;13951;49.516;6.094;2022-10-22T13:32:29;19.90;99.90
26212;DHT22;13951;49.516;6.094;2022-10-22T13:35:14;19.80;99.90
26212;DHT22;13951;49.516;6.094;2022-10-22T13:38:18;19.80;99.90
26212;DHT22;13951;49.516;6.094;2022-10-22T13:41:03;19.70;99.90
26212;DHT22;13951;49.516;6.094;2022-10-22T13:44:09;19.60;99.90
26212;DHT22;13951;49.516;6.094;2022-10-22T13:47:34;19.60;99.90
26212;DHT22;13951;49.516;6.094;2022-10-22T13:50:16;19.60;99.90
26212;DHT22;13951;49.516;6.094;2022-10-22T14:05:53;19.30;99.90
26212;DHT22;13951;49.516;6.094;2022-10-22T14:18:55;19.00;99.90
26212;DHT22;13951;49.516;6.094;2022-10-22T14:51:44;18.50;99.90
26212;DHT22;13951;49.516;6.094;2022-10-22T14:54:30;18.40;99.90
26212;DHT22;13951;49.516;6.094;2022-10-22T14:57:10;18.40;99.90
26212;DHT22;13951;49.516;6.094;2022-10-22T14:59:53;18.30;99.90
26212;DHT22;13951;49.516;6.094;2022-10-22T15:02:52;18.30;99.90
26212;DHT22;13951;49.516;6.094;2022-10-22T15:05:39;18.30;99.90
26212;DHT22;13951;49.516;6.094;2022-10-22T15:08:22;18.20;99.90
26212;DHT22;13951;49.516;6.094;2022-10-22T15:11:04;18.20;99.90
26212;DHT22;13951;49.516;6.094;2022-10-22T15:13:51;18.20;99.90
26212;DHT22;13951;49.516;6.094;2022-10-22T15:16:33;18.20;99.90
26212;DHT22;13951;49.516;6.094;2022-10-22T15:19:11;18.20;99.90
26212;DHT22;13951;49.516;6.094;2022-10-22T15:21:47;18.20;99.90
26212;DHT22;13951;49.516;6.094;2022-10-22T15:24:26;18.20;99.90
26212;DHT22;13951;49.516;6.094;2022-10-22T15:27:04;18.10;99.90
26212;DHT22;13951;49.516;6.094;2022-10-22T15:30:26;18.10;99.90
26212;DHT22;13951;49.516;6.094;2022-10-22T15:33:16;18.00;99.90
26212;DHT22;13951;49.516;6.094;2022-10-22T15:36:23;18.00;99.90
26212;DHT22;13951;49.516;6.094;2022-10-22T15:39:12;17.90;99.90
26212;DHT22;13951;49.516;6.094;2022-10-22T15:41:58;17.90;99.90
26212;DHT22;13951;49.516;6.094;2022-10-22T15:44:39;17.90;99.90
26212;DHT22;13951;49.516;6.094;2022-10-22T15:47:30;17.90;99.90
26212;DHT22;13951;49.516;6.094;2022-10-22T15:50:11;17.80;99.90
26212;DHT22;13951;49.516;6.094;2022-10-22T15:53:22;17.80;99.90
26212;DHT22;13951;49.516;6.094;2022-10-22T15:56:02;17.70;99.90
26212;DHT22;13951;49.516;6.094;2022-10-22T15:58:53;17.70;99.90
26212;DHT22;13951;49.516;6.094;2022-10-22T16:01:37;17.70;99.90
26212;DHT22;13951;49.516;6.094;2022-10-22T16:04:18;17.70;99.90
26212;DHT22;13951;49.516;6.094;2022-10-22T16:06:57;17.60;99.90
26212;DHT22;13951;49.516;6.094;2022-10-22T16:09:35;17.60;99.90
26212;DHT22;13951;49.516;6.094;2022-10-22T16:56:37;16.90;99.90
26212;DHT22;13951;49.516;6.094;2022-10-22T17:05:47;16.80;99.90
26212;DHT22;13951;49.516;6.094;2022-10-22T17:09:17;16.70;99.90
26212;DHT22;13951;49.516;6.094;2022-10-22T17:32:37;16.20;99.90
26212;DHT22;13951;49.516;6.094;2022-10-22T17:38:42;16.20;99.90
26212;DHT22;13951;49.516;6.094;2022-10-22T17:41:22;16.10;99.90
26212;DHT22;13951;49.516;6.094;2022-10-22T17:44:02;16.10;99.90
26212;DHT22;13951;49.516;6.094;2022-10-22T17:46:42;16.10;99.90
26212;DHT22;13951;49.516;6.094;2022-10-22T17:49:18;16.10;99.90
26212;DHT22;13951;49.516;6.094;2022-10-22T17:51:55;16.10;99.90
26212;DHT22;13951;49.516;6.094;2022-10-22T17:54:40;16.10;99.90
26212;DHT22;13951;49.516;6.094;2022-10-22T18:25:25;15.80;99.90
26212;DHT22;13951;49.516;6.094;2022-10-22T19:02:00;15.60;99.90
26212;DHT22;13951;49.516;6.094;2022-10-22T19:05:29;15.50;99.90
26212;DHT22;13951;49.516;6.094;2022-10-22T19:08:54;15.40;99.90
26212;DHT22;13951;49.516;6.094;2022-10-22T19:13:15;15.30;99.90
26212;DHT22;13951;49.516;6.094;2022-10-22T19:16:32;15.30;99.90
26212;DHT22;13951;49.516;6.094;2022-10-22T19:20:16;15.30;99.90
26212;DHT22;13951;49.516;6.094;2022-10-22T19:26:40;15.30;99.90
26212;DHT22;13951;49.516;6.094;2022-10-22T19:46:05;15.30;99.90
26212;DHT22;13951;49.516;6.094;2022-10-22T19:50:00;15.30;99.90
26212;DHT22;13951;49.516;6.094;2022-10-22T20:03:32;15.10;99.90
26212;DHT22;13951;49.516;6.094;2022-10-22T20:16:54;15.10;99.90
26212;DHT22;13951;49.516;6.094;2022-10-22T20:20:49;15.10;99.90
26212;DHT22;13951;49.516;6.094;2022-10-22T20:45:01;14.80;99.90
26212;DHT22;13951;49.516;6.094;2022-10-22T20:49:13;14.80;99.90
26212;DHT22;13951;49.516;6.094;2022-10-22T20:52:32;14.80;99.90
26212;DHT22;13951;49.516;6.094;2022-10-22T20:56:16;14.70;99.90
26212;DHT22;13951;49.516;6.094;2022-10-22T20:59:56;14.70;99.90
26212;DHT22;13951;49.516;6.094;2022-10-22T21:03:05;14.70;99.90
26212;DHT22;13951;49.516;6.094;2022-10-22T21:06:54;14.60;99.90
26212;DHT22;13951;49.516;6.094;2022-10-22T21:09:47;14.60;99.90
26212;DHT22;13951;49.516;6.094;2022-10-22T21:21:19;14.50;99.90
26212;DHT22;13951;49.516;6.094;2022-10-22T21:24:47;14.50;99.90
26212;DHT22;13951;49.516;6.094;2022-10-22T21:28:20;14.50;99.90
26212;DHT22;13951;49.516;6.094;2022-10-22T21:32:36;14.50;99.90
26212;DHT22;13951;49.516;6.094;2022-10-22T21:36:35;14.50;99.90
